ACA21R CYVR-CYYC
Flight info
| Callsign | ACA21R |
|---|---|
| Flight time | 1h 15m |
| Altitude | 35000 |
| Route | YVR4/26L DAPED DCT PETLI DCT MENBO Q983 NORET IGVEP7 |
| Aircraft | A320/M-SDE3FGHIRWY/LB1 |
Departure
| Time | 2026-05-03 21:18 |
|---|---|
| Airport | Vancouver International Airport (CYVR) |
Arrival
| Time | 2026-05-03 22:33 |
|---|---|
| Airport | Calgary International Airport (CYYC) |
| Time | Latitude | Longitude | Altitude | Speed | Heading |
|---|---|---|---|---|---|
| 2026-05-03 20:58 | 49.19191 | -123.18453 | 19 ft | 0 kts | 48° |
| 2026-05-03 21:08 | 49.19181 | -123.18469 | 18 ft | 4 kts | 48° |
| 2026-05-03 21:08 | 49.19169 | -123.18488 | 19 ft | 4 kts | 27° |
| 2026-05-03 21:08 | 49.19146 | -123.18495 | 19 ft | 4 kts | 335° |
| 2026-05-03 21:08 | 49.19137 | -123.18487 | 20 ft | 0 kts | 320° |
| 2026-05-03 21:12 | 49.19139 | -123.18491 | 20 ft | 3 kts | 320° |
| 2026-05-03 21:12 | 49.19162 | -123.18552 | 26 ft | 8 kts | 269° |
| 2026-05-03 21:12 | 49.19128 | -123.18618 | 18 ft | 8 kts | 200° |
| 2026-05-03 21:13 | 49.19066 | -123.18572 | 18 ft | 13 kts | 143° |
| 2026-05-03 21:13 | 49.18997 | -123.18491 | 19 ft | 12 kts | 143° |
| 2026-05-03 21:13 | 49.18948 | -123.18371 | 19 ft | 20 kts | 105° |
| 2026-05-03 21:13 | 49.18919 | -123.18128 | 18 ft | 23 kts | 101° |
| 2026-05-03 21:14 | 49.18893 | -123.17898 | 18 ft | 21 kts | 99° |
| 2026-05-03 21:14 | 49.18869 | -123.17691 | 18 ft | 19 kts | 100° |
| 2026-05-03 21:14 | 49.18848 | -123.17505 | 20 ft | 17 kts | 100° |
| 2026-05-03 21:14 | 49.18829 | -123.17339 | 18 ft | 15 kts | 100° |
| 2026-05-03 21:15 | 49.18806 | -123.17152 | 18 ft | 23 kts | 102° |
| 2026-05-03 21:15 | 49.18782 | -123.16924 | 18 ft | 20 kts | 98° |
| 2026-05-03 21:15 | 49.18761 | -123.16720 | 20 ft | 18 kts | 101° |
| 2026-05-03 21:15 | 49.18738 | -123.16538 | 18 ft | 17 kts | 101° |
| 2026-05-03 21:16 | 49.18718 | -123.16375 | 21 ft | 15 kts | 101° |
| 2026-05-03 21:16 | 49.18674 | -123.16250 | 22 ft | 13 kts | 139° |
| 2026-05-03 21:16 | 49.18636 | -123.16146 | 19 ft | 11 kts | 101° |
| 2026-05-03 21:16 | 49.18601 | -123.16044 | 19 ft | 11 kts | 155° |
| 2026-05-03 21:17 | 49.18535 | -123.16045 | 21 ft | 8 kts | 192° |
| 2026-05-03 21:17 | 49.18489 | -123.16063 | 21 ft | 12 kts | 194° |
| 2026-05-03 21:17 | 49.18485 | -123.16203 | 19 ft | 14 kts | 281° |
| 2026-05-03 21:17 | 49.18534 | -123.16620 | 18 ft | 73 kts | 280° |
| 2026-05-03 21:18 | 49.18657 | -123.17680 | 22 ft | 128 kts | 280° |
| 2026-05-03 21:18 | 49.18831 | -123.19256 | 61 ft | 167 kts | 280° |
| 2026-05-03 21:18 | 49.18997 | -123.21006 | 670 ft | 166 kts | 278° |
| 2026-05-03 21:18 | 49.19139 | -123.22758 | 1310 ft | 170 kts | 276° |
| 2026-05-03 21:19 | 49.19289 | -123.24573 | 1904 ft | 174 kts | 277° |
| 2026-05-03 21:19 | 49.19463 | -123.26460 | 2293 ft | 189 kts | 279° |
| 2026-05-03 21:19 | 49.19672 | -123.28549 | 2569 ft | 209 kts | 279° |
| 2026-05-03 21:19 | 49.19905 | -123.30899 | 2767 ft | 237 kts | 278° |
| 2026-05-03 21:20 | 49.20152 | -123.33512 | 3170 ft | 258 kts | 278° |
| 2026-05-03 21:20 | 49.20420 | -123.36274 | 3870 ft | 266 kts | 278° |
| 2026-05-03 21:20 | 49.20434 | -123.39114 | 4648 ft | 271 kts | 256° |
| 2026-05-03 21:20 | 49.19607 | -123.41713 | 5419 ft | 276 kts | 229° |
| 2026-05-03 21:21 | 49.18078 | -123.43468 | 6190 ft | 279 kts | 201° |
| 2026-05-03 21:21 | 49.16173 | -123.44014 | 6930 ft | 282 kts | 175° |
| 2026-05-03 21:21 | 49.14295 | -123.43209 | 7650 ft | 284 kts | 148° |
| 2026-05-03 21:21 | 49.12840 | -123.41199 | 8385 ft | 285 kts | 122° |
| 2026-05-03 21:22 | 49.12110 | -123.38408 | 9121 ft | 286 kts | 99° |
| 2026-05-03 21:22 | 49.11809 | -123.35403 | 9931 ft | 287 kts | 96° |
| 2026-05-03 21:22 | 49.11550 | -123.32299 | 10291 ft | 306 kts | 95° |
| 2026-05-03 21:22 | 49.11346 | -123.28952 | 10461 ft | 328 kts | 89° |
| 2026-05-03 21:23 | 49.11393 | -123.25386 | 10835 ft | 341 kts | 87° |
| 2026-05-03 21:23 | 49.11489 | -123.21733 | 11461 ft | 346 kts | 86° |
| 2026-05-03 21:23 | 49.11607 | -123.18041 | 12126 ft | 350 kts | 85° |
| 2026-05-03 21:23 | 49.11732 | -123.14304 | 12777 ft | 355 kts | 85° |
| 2026-05-03 21:24 | 49.11856 | -123.10512 | 13429 ft | 359 kts | 85° |
| 2026-05-03 21:24 | 49.11969 | -123.06689 | 14039 ft | 363 kts | 86° |
| 2026-05-03 21:24 | 49.12074 | -123.02817 | 14614 ft | 367 kts | 86° |
| 2026-05-03 21:24 | 49.12175 | -122.98959 | 15192 ft | 370 kts | 86° |
| 2026-05-03 21:25 | 49.12276 | -122.95025 | 15771 ft | 373 kts | 86° |
| 2026-05-03 21:25 | 49.12375 | -122.91057 | 16348 ft | 376 kts | 86° |
| 2026-05-03 21:25 | 49.12472 | -122.87051 | 16929 ft | 379 kts | 86° |
| 2026-05-03 21:25 | 49.12569 | -122.83009 | 17491 ft | 382 kts | 86° |
| 2026-05-03 21:26 | 49.12666 | -122.78936 | 18043 ft | 386 kts | 86° |
| 2026-05-03 21:26 | 49.12760 | -122.74826 | 18556 ft | 389 kts | 86° |
| 2026-05-03 21:26 | 49.12855 | -122.70688 | 19058 ft | 391 kts | 86° |
| 2026-05-03 21:26 | 49.12954 | -122.66524 | 19575 ft | 393 kts | 86° |
| 2026-05-03 21:27 | 49.13054 | -122.62342 | 20094 ft | 396 kts | 86° |
| 2026-05-03 21:27 | 49.13152 | -122.58130 | 20599 ft | 398 kts | 86° |
| 2026-05-03 21:27 | 49.13247 | -122.53889 | 21101 ft | 401 kts | 86° |
| 2026-05-03 21:27 | 49.13339 | -122.49627 | 21599 ft | 403 kts | 86° |
| 2026-05-03 21:28 | 49.13429 | -122.45333 | 22090 ft | 405 kts | 86° |
| 2026-05-03 21:28 | 49.13519 | -122.41021 | 22570 ft | 408 kts | 86° |
| 2026-05-03 21:28 | 49.13609 | -122.36681 | 23019 ft | 410 kts | 86° |
| 2026-05-03 21:28 | 49.13696 | -122.32309 | 23509 ft | 412 kts | 86° |
| 2026-05-03 21:29 | 49.13782 | -122.27921 | 23904 ft | 415 kts | 86° |
| 2026-05-03 21:29 | 49.13865 | -122.23505 | 24304 ft | 416 kts | 86° |
| 2026-05-03 21:29 | 49.13949 | -122.19074 | 24678 ft | 418 kts | 86° |
| 2026-05-03 21:29 | 49.14034 | -122.14627 | 25046 ft | 420 kts | 86° |
| 2026-05-03 21:30 | 49.14120 | -122.10157 | 25402 ft | 421 kts | 86° |
| 2026-05-03 21:30 | 49.14201 | -122.05735 | 25752 ft | 423 kts | 86° |
| 2026-05-03 21:30 | 49.14281 | -122.01235 | 26101 ft | 425 kts | 86° |
| 2026-05-03 21:30 | 49.14359 | -121.96717 | 26446 ft | 427 kts | 86° |
| 2026-05-03 21:31 | 49.14433 | -121.92176 | 26793 ft | 428 kts | 86° |
| 2026-05-03 21:31 | 49.14506 | -121.87619 | 27127 ft | 430 kts | 86° |
| 2026-05-03 21:31 | 49.14576 | -121.83044 | 27445 ft | 432 kts | 86° |
| 2026-05-03 21:31 | 49.14642 | -121.78456 | 27764 ft | 433 kts | 86° |
| 2026-05-03 21:32 | 49.14707 | -121.73850 | 28079 ft | 435 kts | 86° |
| 2026-05-03 21:32 | 49.14778 | -121.69202 | 28365 ft | 435 kts | 85° |
| 2026-05-03 21:32 | 49.15078 | -121.64607 | 28636 ft | 435 kts | 79° |
| 2026-05-03 21:32 | 49.15500 | -121.60025 | 28925 ft | 436 kts | 79° |
| 2026-05-03 21:33 | 49.15920 | -121.55419 | 29153 ft | 439 kts | 79° |
| 2026-05-03 21:33 | 49.16339 | -121.50785 | 29390 ft | 441 kts | 79° |
| 2026-05-03 21:33 | 49.16755 | -121.46132 | 29644 ft | 443 kts | 79° |
| 2026-05-03 21:33 | 49.17170 | -121.41460 | 29880 ft | 444 kts | 79° |
| 2026-05-03 21:34 | 49.17585 | -121.36774 | 30101 ft | 446 kts | 79° |
| 2026-05-03 21:34 | 49.18001 | -121.32067 | 30310 ft | 447 kts | 79° |
| 2026-05-03 21:34 | 49.18413 | -121.27352 | 30666 ft | 445 kts | 79° |
| 2026-05-03 21:34 | 49.18814 | -121.22728 | 31019 ft | 443 kts | 79° |
| 2026-05-03 21:35 | 49.19221 | -121.18014 | 31308 ft | 441 kts | 79° |
| 2026-05-03 21:35 | 49.19621 | -121.13370 | 31612 ft | 440 kts | 79° |
| 2026-05-03 21:35 | 49.20020 | -121.08736 | 31932 ft | 439 kts | 78° |
| 2026-05-03 21:35 | 49.20408 | -121.04177 | 32278 ft | 437 kts | 78° |
| 2026-05-03 21:36 | 49.20798 | -120.99583 | 32607 ft | 435 kts | 78° |
| 2026-05-03 21:36 | 49.21187 | -120.95013 | 32876 ft | 433 kts | 78° |
| 2026-05-03 21:36 | 49.21572 | -120.90460 | 33170 ft | 431 kts | 78° |
| 2026-05-03 21:36 | 49.21954 | -120.85919 | 33482 ft | 429 kts | 78° |
| 2026-05-03 21:37 | 49.22366 | -120.81413 | 33800 ft | 425 kts | 73° |
| 2026-05-03 21:37 | 49.23283 | -120.77180 | 34111 ft | 416 kts | 63° |
| 2026-05-03 21:37 | 49.24401 | -120.73105 | 34367 ft | 415 kts | 63° |
| 2026-05-03 21:37 | 49.25523 | -120.69032 | 34636 ft | 414 kts | 63° |
| 2026-05-03 21:38 | 49.26644 | -120.64960 | 34823 ft | 414 kts | 63° |
| 2026-05-03 21:38 | 49.27763 | -120.60892 | 34979 ft | 415 kts | 63° |
| 2026-05-03 21:38 | 49.29979 | -120.52817 | 35014 ft | 413 kts | 63° |
| 2026-05-03 21:39 | 49.32209 | -120.44642 | 35016 ft | 413 kts | 63° |
| 2026-05-03 21:39 | 49.34401 | -120.36569 | 35017 ft | 413 kts | 63° |
| 2026-05-03 21:40 | 49.36610 | -120.28429 | 35017 ft | 414 kts | 63° |
| 2026-05-03 21:40 | 49.38821 | -120.20253 | 35013 ft | 415 kts | 63° |
| 2026-05-03 21:41 | 49.41029 | -120.12056 | 35004 ft | 415 kts | 63° |
| 2026-05-03 21:41 | 49.43221 | -120.03839 | 35005 ft | 415 kts | 63° |
| 2026-05-03 21:42 | 49.45410 | -119.95625 | 34985 ft | 416 kts | 63° |
| 2026-05-03 21:42 | 49.47597 | -119.87399 | 34984 ft | 416 kts | 63° |
| 2026-05-03 21:43 | 49.49790 | -119.79131 | 34971 ft | 418 kts | 63° |
| 2026-05-03 21:43 | 49.51982 | -119.70846 | 34960 ft | 418 kts | 63° |
| 2026-05-03 21:44 | 49.54170 | -119.62534 | 34962 ft | 419 kts | 63° |
| 2026-05-03 21:44 | 49.56352 | -119.54222 | 34957 ft | 418 kts | 63° |
| 2026-05-03 21:45 | 49.58536 | -119.45888 | 34967 ft | 420 kts | 63° |
| 2026-05-03 21:45 | 49.60712 | -119.37520 | 34962 ft | 421 kts | 63° |
| 2026-05-03 21:46 | 49.62871 | -119.29189 | 34968 ft | 422 kts | 63° |
| 2026-05-03 21:46 | 49.65049 | -119.20771 | 34976 ft | 422 kts | 64° |
| 2026-05-03 21:47 | 49.67215 | -119.12336 | 35008 ft | 423 kts | 64° |
| 2026-05-03 21:47 | 49.69380 | -119.03883 | 34991 ft | 424 kts | 64° |
| 2026-05-03 21:48 | 49.71551 | -118.95399 | 34995 ft | 425 kts | 64° |
| 2026-05-03 21:48 | 49.73716 | -118.86903 | 34994 ft | 425 kts | 64° |
| 2026-05-03 21:49 | 49.75875 | -118.78387 | 34993 ft | 425 kts | 64° |
| 2026-05-03 21:49 | 49.78023 | -118.69865 | 35010 ft | 426 kts | 64° |
| 2026-05-03 21:50 | 49.80179 | -118.61305 | 34991 ft | 427 kts | 64° |
| 2026-05-03 21:50 | 49.82340 | -118.52723 | 34988 ft | 428 kts | 64° |
| 2026-05-03 21:51 | 49.84492 | -118.44131 | 34980 ft | 428 kts | 64° |
| 2026-05-03 21:51 | 49.86637 | -118.35524 | 34979 ft | 428 kts | 64° |
| 2026-05-03 21:52 | 49.88776 | -118.26898 | 34987 ft | 429 kts | 64° |
| 2026-05-03 21:52 | 49.90546 | -118.19683 | 34979 ft | 430 kts | 64° |
| 2026-05-03 21:53 | 49.92678 | -118.11006 | 34975 ft | 431 kts | 64° |
| 2026-05-03 21:53 | 49.94814 | -118.02313 | 34972 ft | 431 kts | 64° |
| 2026-05-03 21:54 | 49.96944 | -117.93598 | 34973 ft | 431 kts | 64° |
| 2026-05-03 21:54 | 49.99063 | -117.84870 | 34971 ft | 431 kts | 64° |
| 2026-05-03 21:55 | 50.01170 | -117.76141 | 34981 ft | 432 kts | 64° |
| 2026-05-03 21:55 | 50.03291 | -117.67388 | 34984 ft | 433 kts | 64° |
| 2026-05-03 21:56 | 50.05405 | -117.58615 | 34981 ft | 433 kts | 65° |
| 2026-05-03 21:56 | 50.07508 | -117.49836 | 35002 ft | 433 kts | 64° |
| 2026-05-03 21:57 | 50.09600 | -117.41036 | 34981 ft | 434 kts | 65° |
| 2026-05-03 21:57 | 50.11693 | -117.32211 | 34985 ft | 435 kts | 65° |
| 2026-05-03 21:58 | 50.13784 | -117.23363 | 34979 ft | 435 kts | 65° |
| 2026-05-03 21:58 | 50.15861 | -117.14562 | 34976 ft | 435 kts | 65° |
| 2026-05-03 21:59 | 50.17958 | -117.05640 | 34986 ft | 436 kts | 65° |
| 2026-05-03 21:59 | 50.20021 | -116.96811 | 34978 ft | 436 kts | 65° |
| 2026-05-03 22:00 | 50.22090 | -116.87894 | 34982 ft | 437 kts | 65° |
| 2026-05-03 22:00 | 50.24157 | -116.78950 | 34996 ft | 438 kts | 65° |
| 2026-05-03 22:01 | 50.26224 | -116.69995 | 35003 ft | 438 kts | 65° |
| 2026-05-03 22:01 | 50.28288 | -116.61017 | 35025 ft | 439 kts | 65° |
| 2026-05-03 22:02 | 50.30346 | -116.52028 | 35022 ft | 440 kts | 65° |
| 2026-05-03 22:02 | 50.32401 | -116.43007 | 34722 ft | 439 kts | 65° |
| 2026-05-03 22:03 | 50.33428 | -116.38489 | 34293 ft | 441 kts | 65° |
| 2026-05-03 22:03 | 50.34455 | -116.33959 | 33853 ft | 443 kts | 65° |
| 2026-05-03 22:03 | 50.35489 | -116.29403 | 33392 ft | 445 kts | 65° |
| 2026-05-03 22:03 | 50.36525 | -116.24829 | 32954 ft | 446 kts | 65° |
| 2026-05-03 22:04 | 50.37559 | -116.20237 | 32496 ft | 448 kts | 65° |
| 2026-05-03 22:04 | 50.38590 | -116.15631 | 31968 ft | 447 kts | 65° |
| 2026-05-03 22:04 | 50.39611 | -116.11041 | 31453 ft | 446 kts | 65° |
| 2026-05-03 22:04 | 50.40625 | -116.06466 | 30949 ft | 443 kts | 65° |
| 2026-05-03 22:05 | 50.41631 | -116.01915 | 30459 ft | 440 kts | 66° |
| 2026-05-03 22:05 | 50.42626 | -115.97403 | 29938 ft | 437 kts | 66° |
| 2026-05-03 22:05 | 50.43617 | -115.92902 | 29371 ft | 434 kts | 66° |
| 2026-05-03 22:05 | 50.44602 | -115.88431 | 28815 ft | 431 kts | 66° |
| 2026-05-03 22:06 | 50.45577 | -115.84002 | 28283 ft | 428 kts | 65° |
| 2026-05-03 22:06 | 50.46545 | -115.79603 | 27752 ft | 425 kts | 65° |
| 2026-05-03 22:06 | 50.47505 | -115.75228 | 27225 ft | 423 kts | 65° |
| 2026-05-03 22:06 | 50.48456 | -115.70876 | 26712 ft | 420 kts | 65° |
| 2026-05-03 22:07 | 50.49397 | -115.66554 | 26213 ft | 417 kts | 65° |
| 2026-05-03 22:07 | 50.50330 | -115.62259 | 25720 ft | 414 kts | 65° |
| 2026-05-03 22:07 | 50.51255 | -115.57990 | 25226 ft | 411 kts | 65° |
| 2026-05-03 22:07 | 50.52171 | -115.53740 | 24748 ft | 409 kts | 65° |
| 2026-05-03 22:08 | 50.53068 | -115.49570 | 24294 ft | 407 kts | 65° |
| 2026-05-03 22:08 | 50.53974 | -115.45366 | 23827 ft | 404 kts | 65° |
| 2026-05-03 22:08 | 50.54873 | -115.41195 | 23369 ft | 402 kts | 65° |
| 2026-05-03 22:08 | 50.55772 | -115.37028 | 22700 ft | 403 kts | 65° |
| 2026-05-03 22:09 | 50.56672 | -115.32847 | 22032 ft | 401 kts | 65° |
| 2026-05-03 22:09 | 50.57548 | -115.28741 | 21398 ft | 392 kts | 66° |
| 2026-05-03 22:09 | 50.58409 | -115.24689 | 20892 ft | 390 kts | 66° |
| 2026-05-03 22:10 | 50.60128 | -115.16621 | 19904 ft | 387 kts | 66° |
| 2026-05-03 22:10 | 50.60979 | -115.12598 | 19419 ft | 387 kts | 66° |
| 2026-05-03 22:10 | 50.61825 | -115.08586 | 18945 ft | 386 kts | 66° |
| 2026-05-03 22:10 | 50.62668 | -115.04581 | 18478 ft | 384 kts | 66° |
| 2026-05-03 22:11 | 50.63510 | -115.00590 | 17974 ft | 383 kts | 66° |
| 2026-05-03 22:11 | 50.64353 | -114.96606 | 17448 ft | 383 kts | 66° |
| 2026-05-03 22:11 | 50.65193 | -114.92627 | 16926 ft | 382 kts | 67° |
| 2026-05-03 22:11 | 50.66030 | -114.88655 | 16409 ft | 380 kts | 68° |
| 2026-05-03 22:12 | 50.66849 | -114.84764 | 15906 ft | 377 kts | 68° |
| 2026-05-03 22:12 | 50.67658 | -114.80897 | 15397 ft | 365 kts | 68° |
| 2026-05-03 22:12 | 50.68435 | -114.77141 | 14905 ft | 357 kts | 69° |
| 2026-05-03 22:12 | 50.69197 | -114.73449 | 14420 ft | 352 kts | 69° |
| 2026-05-03 22:13 | 50.69959 | -114.69773 | 13948 ft | 353 kts | 68° |
| 2026-05-03 22:13 | 50.70961 | -114.66265 | 13447 ft | 350 kts | 56° |
| 2026-05-03 22:13 | 50.72387 | -114.63190 | 13004 ft | 344 kts | 44° |
| 2026-05-03 22:13 | 50.74039 | -114.60509 | 12645 ft | 339 kts | 42° |
| 2026-05-03 22:14 | 50.75675 | -114.57855 | 12285 ft | 336 kts | 43° |
| 2026-05-03 22:14 | 50.77290 | -114.55212 | 11900 ft | 331 kts | 43° |
| 2026-05-03 22:14 | 50.78852 | -114.52643 | 11519 ft | 317 kts | 43° |
| 2026-05-03 22:14 | 50.80347 | -114.50182 | 11144 ft | 305 kts | 43° |
| 2026-05-03 22:15 | 50.81830 | -114.47796 | 10784 ft | 303 kts | 41° |
| 2026-05-03 22:15 | 50.83339 | -114.45484 | 10419 ft | 302 kts | 40° |
| 2026-05-03 22:15 | 50.84860 | -114.43202 | 10062 ft | 301 kts | 40° |
| 2026-05-03 22:15 | 50.86374 | -114.40933 | 9687 ft | 297 kts | 40° |
| 2026-05-03 22:16 | 50.87838 | -114.38724 | 9297 ft | 285 kts | 40° |
| 2026-05-03 22:16 | 50.89241 | -114.36596 | 8911 ft | 273 kts | 41° |
| 2026-05-03 22:16 | 50.90496 | -114.34397 | 8516 ft | 266 kts | 54° |
| 2026-05-03 22:16 | 50.91297 | -114.31802 | 8181 ft | 259 kts | 70° |
| 2026-05-03 22:17 | 50.91607 | -114.29007 | 7752 ft | 257 kts | 86° |
| 2026-05-03 22:17 | 50.91757 | -114.26251 | 7285 ft | 251 kts | 70° |
| 2026-05-03 22:17 | 50.92358 | -114.23659 | 6838 ft | 245 kts | 64° |
| 2026-05-03 22:17 | 50.93004 | -114.21220 | 6406 ft | 240 kts | 63° |
| 2026-05-03 22:18 | 50.93610 | -114.18869 | 6270 ft | 220 kts | 63° |
| 2026-05-03 22:18 | 50.94161 | -114.16683 | 6096 ft | 210 kts | 64° |
| 2026-05-03 22:18 | 50.94692 | -114.14530 | 6015 ft | 210 kts | 64° |
| 2026-05-03 22:18 | 50.95219 | -114.12405 | 5988 ft | 204 kts | 63° |
| 2026-05-03 22:19 | 50.95720 | -114.10321 | 5988 ft | 199 kts | 63° |
| 2026-05-03 22:19 | 50.96211 | -114.08280 | 5991 ft | 197 kts | 63° |
| 2026-05-03 22:19 | 50.96696 | -114.06335 | 5986 ft | 181 kts | 55° |
| 2026-05-03 22:19 | 50.97459 | -114.04874 | 5980 ft | 168 kts | 36° |
| 2026-05-03 22:20 | 50.98345 | -114.03674 | 6020 ft | 167 kts | 33° |
| 2026-05-03 22:20 | 50.99266 | -114.02590 | 6001 ft | 161 kts | 22° |
| 2026-05-03 22:20 | 51.00329 | -114.02146 | 5995 ft | 158 kts | 0° |
| 2026-05-03 22:20 | 51.01411 | -114.02143 | 5993 ft | 153 kts | 358° |
| 2026-05-03 22:21 | 51.02460 | -114.02142 | 5990 ft | 150 kts | 359° |
| 2026-05-03 22:21 | 51.03508 | -114.02141 | 5986 ft | 150 kts | 358° |
| 2026-05-03 22:21 | 51.04544 | -114.02142 | 5988 ft | 148 kts | 359° |
| 2026-05-03 22:21 | 51.05572 | -114.02151 | 6179 ft | 149 kts | 358° |
| 2026-05-03 22:22 | 51.06628 | -114.02152 | 6423 ft | 154 kts | 358° |
| 2026-05-03 22:22 | 51.07708 | -114.02157 | 6663 ft | 156 kts | 355° |
| 2026-05-03 22:22 | 51.08683 | -114.02821 | 6889 ft | 160 kts | 315° |
| 2026-05-03 22:22 | 51.09106 | -114.04555 | 6973 ft | 186 kts | 276° |
| 2026-05-03 22:23 | 51.08966 | -114.06683 | 6991 ft | 196 kts | 265° |
| 2026-05-03 22:23 | 51.08699 | -114.08812 | 6988 ft | 197 kts | 263° |
| 2026-05-03 22:23 | 51.08418 | -114.10957 | 7003 ft | 208 kts | 264° |
| 2026-05-03 22:23 | 51.08089 | -114.13304 | 6973 ft | 218 kts | 259° |
| 2026-05-03 22:24 | 51.07339 | -114.15401 | 6940 ft | 229 kts | 229° |
| 2026-05-03 22:24 | 51.05936 | -114.16635 | 6655 ft | 237 kts | 194° |
| 2026-05-03 22:24 | 51.04280 | -114.16700 | 6291 ft | 242 kts | 176° |
| 2026-05-03 22:24 | 51.02601 | -114.16410 | 6003 ft | 241 kts | 174° |
| 2026-05-03 22:25 | 51.00933 | -114.16077 | 5999 ft | 243 kts | 173° |
| 2026-05-03 22:25 | 50.99253 | -114.15736 | 5992 ft | 243 kts | 173° |
| 2026-05-03 22:25 | 50.97570 | -114.15389 | 5997 ft | 244 kts | 173° |
| 2026-05-03 22:25 | 50.95895 | -114.15048 | 5995 ft | 239 kts | 174° |
| 2026-05-03 22:26 | 50.94268 | -114.14707 | 6016 ft | 234 kts | 173° |
| 2026-05-03 22:26 | 50.92659 | -114.14374 | 6002 ft | 231 kts | 173° |
| 2026-05-03 22:26 | 50.91116 | -114.13744 | 6004 ft | 224 kts | 148° |
| 2026-05-03 22:26 | 50.90090 | -114.12082 | 5987 ft | 206 kts | 109° |
| 2026-05-03 22:27 | 50.89692 | -114.09962 | 6001 ft | 198 kts | 96° |
| 2026-05-03 22:27 | 50.89459 | -114.07820 | 6002 ft | 197 kts | 94° |
| 2026-05-03 22:27 | 50.89322 | -114.05682 | 6005 ft | 190 kts | 77° |
| 2026-05-03 22:27 | 50.89859 | -114.03899 | 6013 ft | 176 kts | 37° |
| 2026-05-03 22:28 | 50.90862 | -114.02828 | 6005 ft | 174 kts | 25° |
| 2026-05-03 22:28 | 50.91989 | -114.02186 | 6003 ft | 171 kts | 5° |
| 2026-05-03 22:28 | 50.93174 | -114.02149 | 6005 ft | 170 kts | 358° |
| 2026-05-03 22:28 | 50.94356 | -114.02149 | 5999 ft | 170 kts | 358° |
| 2026-05-03 22:29 | 50.95537 | -114.02149 | 5999 ft | 168 kts | 358° |
| 2026-05-03 22:29 | 50.96708 | -114.02148 | 5965 ft | 169 kts | 358° |
| 2026-05-03 22:29 | 50.97867 | -114.02146 | 5830 ft | 159 kts | 358° |
| 2026-05-03 22:29 | 50.98940 | -114.02145 | 5640 ft | 152 kts | 358° |
| 2026-05-03 22:30 | 50.99986 | -114.02144 | 5460 ft | 150 kts | 358° |
| 2026-05-03 22:30 | 51.01012 | -114.02143 | 5261 ft | 147 kts | 358° |
| 2026-05-03 22:30 | 51.02032 | -114.02143 | 5064 ft | 147 kts | 359° |
| 2026-05-03 22:30 | 51.03058 | -114.02142 | 4884 ft | 147 kts | 359° |
| 2026-05-03 22:31 | 51.04056 | -114.02141 | 4702 ft | 145 kts | 359° |
| 2026-05-03 22:31 | 51.05070 | -114.02140 | 4506 ft | 147 kts | 358° |
| 2026-05-03 22:31 | 51.06081 | -114.02140 | 4307 ft | 145 kts | 359° |
| 2026-05-03 22:31 | 51.07089 | -114.02147 | 4107 ft | 145 kts | 358° |
| 2026-05-03 22:32 | 51.08116 | -114.02155 | 3927 ft | 146 kts | 1° |
| 2026-05-03 22:32 | 51.09131 | -114.02152 | 3724 ft | 146 kts | 2° |
| 2026-05-03 22:32 | 51.10133 | -114.02141 | 3572 ft | 140 kts | 2° |
| 2026-05-03 22:32 | 51.10978 | -114.02125 | 3557 ft | 98 kts | 0° |
| 2026-05-03 22:33 | 51.11513 | -114.02139 | 3546 ft | 66 kts | 357° |
| 2026-05-03 22:33 | 51.11921 | -114.02133 | 3549 ft | 52 kts | 1° |
| 2026-05-03 22:33 | 51.12208 | -114.02123 | 3549 ft | 31 kts | 2° |
| 2026-05-03 22:33 | 51.12385 | -114.01995 | 3544 ft | 18 kts | 30° |
| 2026-05-03 22:34 | 51.12398 | -114.01983 | 3545 ft | 0 kts | 30° |
| 2026-05-03 22:34 | 51.12399 | -114.01982 | 3545 ft | 1 kts | 30° |
| 2026-05-03 22:34 | 51.12441 | -114.01944 | 3538 ft | 12 kts | 30° |
| 2026-05-03 22:35 | 51.12518 | -114.01875 | 3539 ft | 13 kts | 29° |
| 2026-05-03 22:35 | 51.12589 | -114.01775 | 3544 ft | 14 kts | 62° |
| 2026-05-03 22:35 | 51.12604 | -114.01620 | 3545 ft | 15 kts | 92° |
| 2026-05-03 22:35 | 51.12610 | -114.01461 | 3541 ft | 14 kts | 66° |
| 2026-05-03 22:36 | 51.12665 | -114.01372 | 3546 ft | 0 kts | 41° |
| 2026-05-03 22:36 | 51.12666 | -114.01372 | 3546 ft | 0 kts | 41° |
| 2026-05-03 22:36 | 51.12685 | -114.01345 | 3543 ft | 9 kts | 41° |
| 2026-05-03 22:36 | 51.12770 | -114.01308 | 3546 ft | 15 kts | 4° |
| 2026-05-03 22:37 | 51.12842 | -114.01279 | 3545 ft | 7 kts | 20° |
| 2026-05-03 22:37 | 51.12868 | -114.01267 | 3542 ft | 2 kts | 11° |
| 2026-05-03 22:37 | 51.12872 | -114.01266 | 3545 ft | 0 kts | 11° |